Time;durP1;ratioP1;P1;durP2;ratioP2;P2;SDS_P1;SDS_P2;PMS_P1;PMS_P2;Temp;Humidity;BMP_temperature;BMP_pressure;BME280_temperature;BME280_humidity;BME280_pressure;Samples;Min_cycle;Max_cycle;Signal;HPM_P1;HPM_P2
2022/08/25 00:00:20;;;;;;;0.00;0.00;;;25.00;67.10;;;;;;5134228;28;20038;-91
2022/08/25 00:02:47;;;;;;;1.05;0.68;;;25.00;67.30;;;;;;5133931;28;20083;-91
2022/08/25 00:05:13;;;;;;;0.00;0.00;;;25.00;67.20;;;;;;5128867;28;20118;-91
2022/08/25 00:07:39;;;;;;;0.08;0.08;;;25.00;67.20;;;;;;5132091;28;20117;-96
2022/08/25 00:10:05;;;;;;;7.95;3.65;;;24.80;63.90;;;;;;5134109;28;20119;-95
2022/08/25 00:12:32;;;;;;;10.15;5.82;;;24.70;63.40;;;;;;5134288;28;20063;-90
2022/08/25 00:14:57;;;;;;;29.38;13.90;;;24.50;64.90;;;;;;5133349;28;20027;-88
2022/08/25 00:17:23;;;;;;;13.13;5.80;;;24.40;64.50;;;;;;5133803;28;20091;-88
2022/08/25 00:19:49;;;;;;;18.95;12.40;;;24.30;66.00;;;;;;5133861;28;20033;-88
2022/08/25 00:22:15;;;;;;;9.57;6.72;;;24.40;66.40;;;;;;5131663;28;20031;-88
2022/08/25 00:24:40;;;;;;;19.20;7.78;;;24.30;66.50;;;;;;5134292;27;20022;-88
2022/08/25 00:27:06;;;;;;;17.77;6.43;;;24.40;66.70;;;;;;5139071;27;20027;-88
2022/08/25 00:29:33;;;;;;;8.30;6.45;;;24.50;66.90;;;;;;5137854;27;20423;-88
2022/08/25 00:31:59;;;;;;;5.72;5.13;;;24.50;66.90;;;;;;5138108;27;20518;-89
2022/08/25 00:34:30;;;;;;;6.80;5.88;;;24.50;66.90;;;;;;5136606;27;20031;-88
2022/08/25 00:36:56;;;;;;;3.10;2.88;;;24.50;67.00;;;;;;5137192;27;20146;-89
2022/08/25 00:39:22;;;;;;;7.88;2.95;;;24.60;67.30;;;;;;5136482;27;20489;-88
2022/08/25 00:41:50;;;;;;;16.05;3.80;;;24.50;67.10;;;;;;5134937;27;20156;-88
2022/08/25 00:44:17;;;;;;;9.57;3.53;;;24.60;67.30;;;;;;5136818;27;20026;-88
2022/08/25 00:46:50;;;;;;;2.45;2.28;;;24.60;67.20;;;;;;5137696;27;20365;-88
2022/08/25 00:49:22;;;;;;;3.92;2.10;;;24.60;67.20;;;;;;5134854;27;20385;-87
2022/08/25 00:52:01;;;;;;;2.95;2.63;;;24.60;67.20;;;;;;5134645;27;20033;-88
2022/08/25 00:54:39;;;;;;;2.58;2.38;;;24.60;67.20;;;;;;5121087;27;20031;-88
2022/08/25 00:57:07;;;;;;;1.92;1.75;;;24.70;67.30;;;;;;5136272;27;20145;-88
2022/08/25 00:59:33;;;;;;;1.92;1.83;;;24.70;67.00;;;;;;5137714;27;20023;-88
2022/08/25 01:02:00;;;;;;;0.05;0.05;;;24.70;67.00;;;;;;5135547;27;20031;-88
2022/08/25 01:04:26;;;;;;;3.17;0.68;;;24.70;67.10;;;;;;5135840;27;20031;-88
2022/08/25 01:06:52;;;;;;;0.40;0.40;;;24.70;67.00;;;;;;5136720;27;20023;-87
2022/08/25 01:09:19;;;;;;;0.38;0.38;;;24.70;67.20;;;;;;5136687;27;20110;-88
2022/08/25 01:11:45;;;;;;;1.00;0.95;;;24.70;67.40;;;;;;5136828;27;20114;-88
2022/08/25 01:14:16;;;;;;;6.22;1.58;;;24.70;67.10;;;;;;5138034;27;20019;-88
2022/08/25 01:16:42;;;;;;;1.20;0.65;;;24.70;67.10;;;;;;5136988;27;20489;-88
2022/08/25 01:19:12;;;;;;;0.77;0.25;;;24.70;67.40;;;;;;5136398;27;20092;-88
2022/08/25 01:21:45;;;;;;;0.00;0.00;;;24.70;67.40;;;;;;5137899;27;20019;-88
2022/08/25 01:24:18;;;;;;;0.10;0.10;;;24.70;67.50;;;;;;5136749;27;20059;-88
2022/08/25 01:26:44;;;;;;;0.13;0.13;;;24.70;67.50;;;;;;5136402;27;20019;-88
2022/08/25 01:29:24;;;;;;;0.17;0.13;;;24.70;67.50;;;;;;5136680;27;20049;-89
2022/08/25 01:32:01;;;;;;;0.80;0.80;;;24.60;67.50;;;;;;5138000;27;20519;-88
2022/08/25 01:34:30;;;;;;;0.47;0.35;;;24.70;67.60;;;;;;5135553;27;20027;-88
2022/08/25 01:36:57;;;;;;;0.35;0.35;;;24.70;67.70;;;;;;5136174;27;20019;-88
2022/08/25 01:39:23;;;;;;;0.00;0.00;;;24.60;67.70;;;;;;5136639;27;20027;-88
2022/08/25 01:42:07;;;;;;;0.28;0.28;;;24.60;67.70;;;;;;5137350;27;20079;-88
2022/08/25 01:44:35;;;;;;;0.00;0.00;;;24.70;67.70;;;;;;5136029;27;20525;-88
2022/08/25 01:47:02;;;;;;;0.85;0.85;;;24.60;67.60;;;;;;5137993;27;20058;-89
2022/08/25 01:49:28;;;;;;;0.32;0.32;;;24.60;67.70;;;;;;5137584;27;20018;-88
2022/08/25 01:52:04;;;;;;;0.00;0.00;;;24.60;67.90;;;;;;5137336;27;20023;-88
2022/08/25 01:54:29;;;;;;;0.10;0.00;;;24.60;67.80;;;;;;5136562;27;20062;-88
2022/08/25 01:56:57;;;;;;;0.32;0.32;;;24.60;68.00;;;;;;5135481;27;20081;-88
2022/08/25 01:59:23;;;;;;;0.20;0.20;;;24.60;68.00;;;;;;5136184;27;20031;-88
2022/08/25 02:01:49;;;;;;;0.00;0.00;;;24.60;68.00;;;;;;5136118;27;20064;-88
2022/08/25 02:04:14;;;;;;;0.10;0.10;;;24.60;67.90;;;;;;5135589;27;20456;-88
2022/08/25 02:06:40;;;;;;;0.25;0.10;;;24.60;67.90;;;;;;5135954;27;20081;-88
2022/08/25 02:09:16;;;;;;;0.10;0.10;;;24.60;67.90;;;;;;5137339;27;20025;-89
2022/08/25 02:11:45;;;;;;;0.00;0.00;;;24.60;68.00;;;;;;5135868;27;20019;-89
2022/08/25 02:14:12;;;;;;;0.00;0.00;;;24.60;67.90;;;;;;5136066;27;20453;-88
2022/08/25 02:16:40;;;;;;;0.47;0.38;;;24.50;67.90;;;;;;5136917;27;20023;-88
2022/08/25 02:19:09;;;;;;;0.00;0.00;;;24.50;67.70;;;;;;5135889;27;20493;-89
2022/08/25 02:21:35;;;;;;;0.03;0.03;;;24.50;67.80;;;;;;5135705;27;20023;-89
2022/08/25 02:24:02;;;;;;;0.00;0.00;;;24.50;67.70;;;;;;5134526;27;20072;-89
2022/08/25 02:26:29;;;;;;;0.00;0.00;;;24.50;67.80;;;;;;5137033;27;20027;-89
2022/08/25 02:28:55;;;;;;;0.00;0.00;;;24.50;67.80;;;;;;5135718;27;20019;-89
2022/08/25 02:31:23;;;;;;;0.00;0.00;;;24.50;67.70;;;;;;5135816;27;20019;-88
2022/08/25 02:33:49;;;;;;;0.10;0.10;;;24.50;68.30;;;;;;5135946;27;20110;-88
2022/08/25 02:36:15;;;;;;;0.00;0.00;;;24.50;67.60;;;;;;5135436;27;20034;-89
2022/08/25 02:38:41;;;;;;;0.10;0.10;;;24.50;67.70;;;;;;5135382;27;20027;-89
2022/08/25 02:41:26;;;;;;;0.35;0.35;;;24.50;67.60;;;;;;5135354;27;20049;-88
2022/08/25 02:43:53;;;;;;;0.40;0.40;;;24.50;67.70;;;;;;5135309;27;20485;-88
2022/08/25 02:46:20;;;;;;;0.00;0.00;;;24.50;67.70;;;;;;5135037;27;20103;-88
2022/08/25 02:48:46;;;;;;;0.00;0.00;;;24.40;67.70;;;;;;5134507;27;20358;-88
2022/08/25 02:51:12;;;;;;;0.08;0.08;;;24.40;67.70;;;;;;5134197;27;20023;-88
2022/08/25 02:53:39;;;;;;;0.00;0.00;;;24.50;67.80;;;;;;5136192;27;20034;-88
2022/08/25 02:56:13;;;;;;;0.32;0.32;;;24.40;67.80;;;;;;5135026;27;20388;-89
2022/08/25 02:58:40;;;;;;;0.00;0.00;;;24.40;67.60;;;;;;5136232;27;20036;-88
2022/08/25 03:01:08;;;;;;;0.00;0.00;;;24.40;67.40;;;;;;5133979;27;20078;-89
2022/08/25 03:03:33;;;;;;;0.13;0.13;;;24.40;67.40;;;;;;5135972;27;20131;-89
2022/08/25 03:05:59;;;;;;;0.10;0.10;;;24.40;67.50;;;;;;5135073;27;20085;-89
2022/08/25 03:08:25;;;;;;;0.00;0.00;;;24.40;67.60;;;;;;5133884;27;20023;-89
2022/08/25 03:10:51;;;;;;;0.00;0.00;;;24.40;67.60;;;;;;5134759;27;20023;-89
2022/08/25 03:13:17;;;;;;;0.03;0.00;;;24.40;67.50;;;;;;5133496;27;20023;-88
2022/08/25 03:15:43;;;;;;;0.00;0.00;;;24.40;67.80;;;;;;5136265;27;20031;-89
2022/08/25 03:18:10;;;;;;;0.10;0.10;;;24.40;67.60;;;;;;5134951;27;20023;-88
2022/08/25 03:20:37;;;;;;;0.43;0.43;;;24.40;67.60;;;;;;5133193;27;20019;-88
2022/08/25 03:23:04;;;;;;;0.10;0.10;;;24.40;67.60;;;;;;5134168;27;20076;-89
2022/08/25 03:28:13;;;;;;;0.00;0.00;;;24.40;67.70;;;;;;5134115;27;20058;-89
2022/08/25 03:30:40;;;;;;;0.00;0.00;;;24.40;67.60;;;;;;5133604;27;20031;-89
2022/08/25 03:33:06;;;;;;;1.40;0.35;;;24.40;67.70;;;;;;5134414;27;20031;-89
2022/08/25 03:35:32;;;;;;;0.08;0.08;;;24.40;67.80;;;;;;5134256;27;20480;-89
2022/08/25 03:37:58;;;;;;;0.10;0.10;;;24.40;67.80;;;;;;5134503;27;20080;-89
2022/08/25 03:40:25;;;;;;;0.00;0.00;;;24.30;67.90;;;;;;5133554;27;20033;-89
2022/08/25 03:42:50;;;;;;;0.10;0.10;;;24.40;68.50;;;;;;5135124;27;20070;-89
2022/08/25 03:45:17;;;;;;;0.03;0.03;;;24.30;67.80;;;;;;5133176;27;20465;-89
2022/08/25 03:47:47;;;;;;;0.08;0.08;;;24.30;68.00;;;;;;5133540;28;20074;-88
2022/08/25 03:50:13;;;;;;;0.00;0.00;;;24.30;67.80;;;;;;5134285;28;20016;-88
2022/08/25 03:52:39;;;;;;;0.00;0.00;;;24.40;67.80;;;;;;5135277;28;20019;-89
2022/08/25 03:55:08;;;;;;;0.00;0.00;;;24.40;67.90;;;;;;5151963;27;20079;-88
2022/08/25 03:57:34;;;;;;;0.83;0.10;;;24.30;67.90;;;;;;5155928;27;20030;-88
2022/08/25 04:00:00;;;;;;;0.05;0.05;;;24.40;68.10;;;;;;5151711;27;20054;-88
2022/08/25 04:02:26;;;;;;;0.00;0.00;;;24.40;68.20;;;;;;5135783;27;20072;-87
2022/08/25 04:04:52;;;;;;;1.27;0.45;;;24.30;67.80;;;;;;5137630;27;20027;-85
2022/08/25 04:07:18;;;;;;;0.43;0.30;;;24.20;67.30;;;;;;5136908;27;20030;-84
2022/08/25 04:09:44;;;;;;;0.93;0.60;;;24.10;67.80;;;;;;5135480;27;20461;-84
2022/08/25 04:12:10;;;;;;;0.17;0.17;;;23.80;67.90;;;;;;5138570;27;20034;-85
2022/08/25 04:14:36;;;;;;;0.47;0.47;;;23.70;67.90;;;;;;5137436;27;20388;-84
2022/08/25 04:17:03;;;;;;;0.22;0.22;;;23.50;68.00;;;;;;5138342;27;20072;-84
2022/08/25 04:19:28;;;;;;;0.73;0.50;;;23.30;69.50;;;;;;5138576;27;20046;-83
2022/08/25 04:21:54;;;;;;;0.13;0.13;;;23.20;70.60;;;;;;5138618;27;20473;-83
2022/08/25 04:24:20;;;;;;;0.32;0.32;;;23.10;70.70;;;;;;5138249;27;20456;-84
2022/08/25 04:26:49;;;;;;;0.55;0.55;;;23.00;70.70;;;;;;5138412;27;20050;-84
2022/08/25 04:29:18;;;;;;;0.85;0.68;;;22.90;71.20;;;;;;5138353;27;20151;-84
2022/08/25 04:31:51;;;;;;;1.75;0.57;;;22.80;71.40;;;;;;5138190;27;20015;-84
2022/08/25 04:34:19;;;;;;;0.10;0.10;;;22.70;71.40;;;;;;5138110;27;20037;-84
2022/08/25 04:36:45;;;;;;;0.20;0.20;;;22.70;72.00;;;;;;5138452;27;20027;-84
2022/08/25 04:39:11;;;;;;;0.80;0.80;;;22.60;72.10;;;;;;5138108;27;20019;-87
2022/08/25 04:41:37;;;;;;;0.43;0.43;;;22.50;72.80;;;;;;5136670;27;20023;-84
2022/08/25 04:44:03;;;;;;;0.63;0.63;;;22.50;73.40;;;;;;5136992;27;20424;-84
2022/08/25 04:46:31;;;;;;;0.93;0.52;;;22.40;73.60;;;;;;5135863;27;20024;-85
2022/08/25 04:48:58;;;;;;;0.38;0.38;;;22.40;74.10;;;;;;5138013;27;20145;-84
2022/08/25 04:51:30;;;;;;;0.30;0.30;;;22.40;74.40;;;;;;5136707;27;20363;-84
2022/08/25 04:54:00;;;;;;;0.00;0.00;;;22.40;74.20;;;;;;5137937;27;20042;-85
2022/08/25 04:56:26;;;;;;;0.08;0.08;;;22.40;74.30;;;;;;5122468;27;20031;-87
2022/08/25 04:58:53;;;;;;;1.08;0.63;;;22.40;74.90;;;;;;5116331;28;20031;-85
2022/08/25 05:01:24;;;;;;;0.00;0.00;;;22.50;73.90;;;;;;5116397;28;20023;-87
2022/08/25 05:04:03;;;;;;;0.10;0.10;;;22.50;73.70;;;;;;5125797;27;20046;-87
2022/08/25 05:06:29;;;;;;;0.25;0.25;;;22.60;73.80;;;;;;5137195;27;20085;-87
2022/08/25 05:08:56;;;;;;;0.10;0.10;;;22.70;73.50;;;;;;5138226;27;20486;-87
2022/08/25 05:11:24;;;;;;;0.00;0.00;;;22.80;73.40;;;;;;5137175;27;20020;-87
2022/08/25 05:13:51;;;;;;;0.17;0.10;;;22.90;73.30;;;;;;5136584;27;20031;-87
2022/08/25 05:16:18;;;;;;;0.00;0.00;;;23.00;73.00;;;;;;5136712;27;20041;-87
2022/08/25 05:18:44;;;;;;;0.00;0.00;;;23.10;72.90;;;;;;5136831;27;20026;-87
2022/08/25 05:21:13;;;;;;;0.15;0.15;;;23.10;72.70;;;;;;5136846;27;20377;-87
2022/08/25 05:23:39;;;;;;;0.15;0.15;;;23.20;72.80;;;;;;5137572;27;20461;-87
2022/08/25 05:26:12;;;;;;;0.10;0.10;;;23.30;72.70;;;;;;5136390;27;20015;-87
2022/08/25 05:28:41;;;;;;;0.00;0.00;;;23.40;72.50;;;;;;5136354;27;20031;-87
2022/08/25 05:31:10;;;;;;;0.10;0.10;;;23.50;72.40;;;;;;5137706;27;20039;-87
2022/08/25 05:33:37;;;;;;;0.10;0.10;;;23.50;72.40;;;;;;5137519;27;20023;-87
2022/08/25 05:36:04;;;;;;;0.20;0.20;;;23.60;72.40;;;;;;5137212;27;20500;-87
2022/08/25 05:38:29;;;;;;;0.00;0.00;;;23.60;72.30;;;;;;5137387;27;20394;-87
2022/08/25 05:41:01;;;;;;;0.10;0.10;;;23.70;72.20;;;;;;5137292;27;20052;-87
2022/08/25 05:43:27;;;;;;;0.22;0.22;;;23.70;72.20;;;;;;5136225;27;20051;-87
2022/08/25 05:45:57;;;;;;;0.00;0.00;;;23.80;72.10;;;;;;5136036;27;20426;-86
2022/08/25 05:48:24;;;;;;;0.00;0.00;;;23.80;72.10;;;;;;5136001;27;20026;-87
2022/08/25 05:50:55;;;;;;;0.10;0.10;;;23.80;72.10;;;;;;5135838;27;20034;-87
2022/08/25 05:53:21;;;;;;;0.15;0.15;;;23.90;72.10;;;;;;5135926;27;20027;-87
2022/08/25 05:55:48;;;;;;;0.60;0.60;;;23.90;72.20;;;;;;5135818;27;20426;-87
2022/08/25 05:58:14;;;;;;;0.10;0.10;;;23.90;71.90;;;;;;5135754;27;20023;-87
2022/08/25 06:00:40;;;;;;;0.00;0.00;;;24.00;71.80;;;;;;5136006;27;20080;-87
2022/08/25 06:03:05;;;;;;;0.00;0.00;;;24.00;71.70;;;;;;5135548;27;20030;-87
2022/08/25 06:05:32;;;;;;;0.20;0.20;;;24.00;71.90;;;;;;5135601;27;20110;-87
2022/08/25 06:07:58;;;;;;;0.38;0.38;;;24.00;71.60;;;;;;5135552;27;20461;-87
2022/08/25 06:10:25;;;;;;;0.00;0.00;;;24.00;71.60;;;;;;5136885;27;20373;-87
2022/08/25 06:12:50;;;;;;;0.00;0.00;;;24.10;72.10;;;;;;5135631;27;20024;-87
2022/08/25 06:15:19;;;;;;;0.00;0.00;;;24.10;72.00;;;;;;5135760;27;20128;-87
2022/08/25 06:17:46;;;;;;;0.00;0.00;;;24.10;71.70;;;;;;5135402;27;20473;-87
2022/08/25 06:20:16;;;;;;;0.10;0.10;;;24.10;71.70;;;;;;5136480;27;20019;-87
2022/08/25 06:22:42;;;;;;;0.08;0.05;;;24.10;71.60;;;;;;5134230;27;20056;-87
2022/08/25 06:25:09;;;;;;;0.80;0.20;;;24.20;71.80;;;;;;5135317;27;20042;-87
2022/08/25 06:27:36;;;;;;;0.00;0.00;;;24.20;71.60;;;;;;5135104;27;20110;-86
2022/08/25 06:30:03;;;;;;;0.75;0.63;;;24.20;71.50;;;;;;5136240;27;20024;-87
2022/08/25 06:32:34;;;;;;;0.00;0.00;;;24.20;71.60;;;;;;5136219;27;20043;-87
2022/08/25 06:35:01;;;;;;;0.00;0.00;;;24.30;71.70;;;;;;5135129;27;20034;-87
2022/08/25 06:37:27;;;;;;;0.00;0.00;;;24.30;71.80;;;;;;5136421;27;20025;-87
2022/08/25 06:39:52;;;;;;;0.00;0.00;;;24.30;71.90;;;;;;5134998;27;20019;-87
2022/08/25 06:42:18;;;;;;;0.03;0.03;;;24.30;71.90;;;;;;5134868;27;20043;-87
2022/08/25 06:44:44;;;;;;;0.00;0.00;;;24.30;71.80;;;;;;5135973;27;20023;-87
2022/08/25 06:47:10;;;;;;;0.00;0.00;;;24.30;71.80;;;;;;5134808;27;20027;-87
2022/08/25 06:49:35;;;;;;;0.00;0.00;;;24.30;72.00;;;;;;5136255;27;20049;-87
2022/08/25 06:52:01;;;;;;;0.25;0.25;;;24.30;71.90;;;;;;5135001;27;20059;-87
2022/08/25 06:54:27;;;;;;;0.00;0.00;;;24.40;72.00;;;;;;5135884;27;20019;-87
2022/08/25 06:56:53;;;;;;;0.20;0.15;;;24.30;72.00;;;;;;5135944;27;20030;-87
2022/08/25 06:59:18;;;;;;;0.00;0.00;;;24.30;72.10;;;;;;5134719;27;20023;-87
2022/08/25 07:01:44;;;;;;;0.00;0.00;;;24.40;72.10;;;;;;5135686;27;20102;-87
2022/08/25 07:04:10;;;;;;;0.00;0.00;;;24.40;72.10;;;;;;5134619;27;20028;-87
2022/08/25 07:06:36;;;;;;;0.00;0.00;;;24.40;72.10;;;;;;5134467;27;20019;-87
2022/08/25 07:09:05;;;;;;;0.00;0.00;;;24.40;72.30;;;;;;5134587;27;20019;-87
2022/08/25 07:11:33;;;;;;;0.00;0.00;;;24.40;72.30;;;;;;5135854;27;20102;-87
2022/08/25 07:14:02;;;;;;;0.25;0.25;;;24.40;72.00;;;;;;5134402;27;20094;-87
2022/08/25 07:16:30;;;;;;;0.38;0.38;;;24.50;72.40;;;;;;5135492;27;20542;-87
2022/08/25 07:18:56;;;;;;;0.63;0.63;;;24.40;72.10;;;;;;5135694;27;20106;-87
2022/08/25 07:21:24;;;;;;;0.10;0.10;;;24.50;72.40;;;;;;5134212;27;20023;-87
2022/08/25 07:23:50;;;;;;;0.10;0.10;;;24.50;72.50;;;;;;5135267;27;20600;-87
2022/08/25 07:26:23;;;;;;;0.13;0.13;;;24.50;71.80;;;;;;5134291;27;20023;-87
2022/08/25 07:28:49;;;;;;;0.10;0.10;;;24.50;72.00;;;;;;5135351;27;20079;-87
2022/08/25 07:31:15;;;;;;;0.03;0.03;;;24.50;71.90;;;;;;5134227;27;20403;-87
2022/08/25 07:35:14;;;;;;;0.17;0.17;;;24.50;72.20;;;;;;5134771;27;20031;-87
2022/08/25 07:36:28;;;;;;;0.00;0.00;;;24.50;72.10;;;;;;5135392;27;20055;-87
2022/08/25 07:38:54;;;;;;;0.43;0.43;;;24.60;71.90;;;;;;5133961;27;20080;-87
2022/08/25 07:41:19;;;;;;;0.00;0.00;;;24.60;72.70;;;;;;5134604;27;20369;-87
2022/08/25 07:43:46;;;;;;;0.00;0.00;;;24.60;72.30;;;;;;5133791;27;20096;-87
2022/08/25 07:46:13;;;;;;;0.43;0.20;;;24.60;72.30;;;;;;5134166;27;20046;-87
2022/08/25 07:48:39;;;;;;;0.00;0.00;;;24.60;72.10;;;;;;5133959;27;20023;-87
2022/08/25 07:51:10;;;;;;;0.00;0.00;;;24.60;72.10;;;;;;5134013;28;20438;-87
2022/08/25 07:53:36;;;;;;;0.00;0.00;;;24.60;71.90;;;;;;5133699;27;20477;-87
2022/08/25 07:56:02;;;;;;;0.00;0.00;;;24.60;71.90;;;;;;5133756;27;20038;-87
2022/08/25 07:58:27;;;;;;;0.05;0.05;;;24.60;72.10;;;;;;5134053;27;20212;-87
2022/08/25 08:00:53;;;;;;;0.00;0.00;;;24.60;72.20;;;;;;5134386;28;20493;-87
2022/08/25 08:03:20;;;;;;;0.10;0.10;;;24.70;72.20;;;;;;5133934;27;20027;-87
2022/08/25 08:05:46;;;;;;;0.00;0.00;;;24.70;72.10;;;;;;5134799;28;20030;-87
2022/08/25 08:08:12;;;;;;;0.00;0.00;;;24.70;72.70;;;;;;5133824;28;20015;-88
2022/08/25 08:10:41;;;;;;;0.00;0.00;;;24.70;73.20;;;;;;5133713;28;20068;-87
2022/08/25 08:13:08;;;;;;;0.15;0.03;;;24.70;73.60;;;;;;5135026;27;20027;-87
2022/08/25 08:15:35;;;;;;;0.28;0.28;;;24.80;73.50;;;;;;5133667;28;20027;-87
2022/08/25 08:18:02;;;;;;;0.00;0.00;;;24.70;73.60;;;;;;5134704;28;20027;-83
2022/08/25 08:20:30;;;;;;;10.35;8.32;;;24.80;72.30;;;;;;5134481;27;20047;-84
2022/08/25 08:22:56;;;;;;;35.30;20.73;;;24.80;73.70;;;;;;5132964;27;20389;-81
2022/08/25 08:25:22;;;;;;;57.35;23.38;;;24.80;72.90;;;;;;5134304;27;20017;-82
2022/08/25 08:27:49;;;;;;;34.67;18.98;;;24.90;72.80;;;;;;5132935;28;20422;-81
2022/08/25 08:30:15;;;;;;;25.90;14.82;;;24.90;73.70;;;;;;5134444;27;20475;-82
2022/08/25 08:32:40;;;;;;;15.48;10.15;;;25.00;72.40;;;;;;5134151;27;20023;-83
2022/08/25 08:35:06;;;;;;;29.20;16.17;;;25.00;73.60;;;;;;5132822;27;20026;-81
2022/08/25 08:37:32;;;;;;;23.92;13.05;;;25.00;73.50;;;;;;5133212;27;20098;-81
2022/08/25 08:40:00;;;;;;;19.75;11.07;;;25.10;72.80;;;;;;5134321;27;20481;-81
2022/08/25 08:42:38;;;;;;;13.52;8.52;;;25.10;72.90;;;;;;5126749;27;20035;-80
2022/08/25 08:45:29;;;;;;;10.73;5.85;;;25.10;72.90;;;;;;5132637;27;20054;-81
2022/08/25 08:48:15;;;;;;;5.75;5.13;;;25.20;72.60;;;;;;5137702;27;20015;-82
2022/08/25 08:51:03;;;;;;;6.40;4.15;;;25.20;72.60;;;;;;5137899;27;20019;-82
2022/08/25 08:53:38;;;;;;;3.85;2.25;;;25.20;72.60;;;;;;5137720;27;20016;-82
2022/08/25 08:56:19;;;;;;;2.30;2.08;;;25.20;73.10;;;;;;5136366;27;20041;-81
2022/08/25 08:59:04;;;;;;;2.55;1.98;;;25.20;73.30;;;;;;5137817;27;20026;-81
2022/08/25 09:01:44;;;;;;;1.02;0.65;;;25.20;73.40;;;;;;5136306;27;20035;-81
2022/08/25 09:04:35;;;;;;;0.75;0.75;;;25.20;73.40;;;;;;5136085;27;20393;-82
2022/08/25 09:07:06;;;;;;;2.75;0.77;;;25.20;73.20;;;;;;5137466;27;20023;-82
2022/08/25 09:09:33;;;;;;;0.00;0.00;;;25.30;73.10;;;;;;5137582;27;20019;-82
2022/08/25 09:12:24;;;;;;;0.20;0.20;;;25.30;73.20;;;;;;5137316;27;20043;-82
2022/08/25 09:14:58;;;;;;;0.00;0.00;;;25.30;72.80;;;;;;5137289;27;20027;-82
2022/08/25 09:17:42;;;;;;;1.23;0.75;;;25.30;70.60;;;;;;5137324;27;20458;-82
2022/08/25 09:20:51;;;;;;;0.28;0.28;;;25.40;73.20;;;;;;5137385;27;20469;-82
2022/08/25 09:24:01;;;;;;;0.37;0.33;;;25.40;71.80;;;;;;5117260;27;20039;-82
2022/08/25 09:27:03;;;;;;;0.10;0.10;;;25.40;73.00;;;;;;5094047;28;20273;-82
2022/08/25 09:29:53;;;;;;;0.43;0.43;;;25.40;72.20;;;;;;5094232;28;20016;-82
2022/08/25 09:32:20;;;;;;;0.25;0.25;;;25.50;72.20;;;;;;5131632;27;20106;-82
2022/08/25 09:34:49;;;;;;;0.28;0.28;;;25.50;73.10;;;;;;5136788;27;20029;-81
2022/08/25 09:37:14;;;;;;;0.82;0.50;;;25.50;72.90;;;;;;5136710;27;20023;-81
2022/08/25 09:39:41;;;;;;;0.13;0.13;;;25.60;73.00;;;;;;5136968;27;20538;-82
2022/08/25 09:42:07;;;;;;;0.20;0.20;;;25.60;73.10;;;;;;5135154;27;20074;-81
2022/08/25 09:44:42;;;;;;;0.00;0.00;;;25.60;72.80;;;;;;5135393;27;20499;-83
2022/08/25 09:47:16;;;;;;;0.57;0.57;;;25.60;69.60;;;;;;5136606;27;20102;-88
2022/08/25 09:49:44;;;;;;;1.13;1.02;;;25.60;70.40;;;;;;5135467;27;20062;-87
2022/08/25 09:52:32;;;;;;;1.55;1.45;;;25.70;71.90;;;;;;5135098;27;20027;-87
2022/08/25 09:55:07;;;;;;;1.70;1.58;;;25.70;71.90;;;;;;5136347;27;20307;-87
2022/08/25 09:57:44;;;;;;;2.50;2.30;;;25.70;71.80;;;;;;5136212;27;20024;-87
2022/08/25 10:00:24;;;;;;;2.33;1.90;;;25.60;72.20;;;;;;5136851;27;20485;-87
2022/08/25 10:03:20;;;;;;;2.20;2.10;;;25.60;73.90;;;;;;5135430;27;20039;-89
2022/08/25 10:05:56;;;;;;;2.15;1.55;;;25.60;72.80;;;;;;5122771;27;20031;-89
2022/08/25 10:08:33;;;;;;;1.02;0.98;;;25.60;72.80;;;;;;5135545;27;20023;-89
2022/08/25 10:11:03;;;;;;;2.08;1.20;;;25.60;72.90;;;;;;5136559;27;20102;-89
2022/08/25 10:13:39;;;;;;;2.28;2.17;;;25.60;73.70;;;;;;5135473;27;20115;-89
2022/08/25 10:16:10;;;;;;;0.30;0.30;;;25.50;74.00;;;;;;5136816;27;20042;-89
2022/08/25 10:18:35;;;;;;;1.10;1.00;;;25.50;73.80;;;;;;5135521;27;20400;-89
2022/08/25 10:21:11;;;;;;;0.13;0.13;;;25.50;73.20;;;;;;5135480;27;20031;-89
2022/08/25 10:23:53;;;;;;;0.20;0.20;;;25.50;74.50;;;;;;5135182;27;20059;-89
2022/08/25 10:26:40;;;;;;;0.77;0.70;;;25.50;74.40;;;;;;5136270;27;20102;-89
2022/08/25 10:29:24;;;;;;;0.10;0.10;;;25.50;74.10;;;;;;5135190;27;20514;-89
2022/08/25 10:31:58;;;;;;;0.20;0.20;;;25.50;74.10;;;;;;5135183;27;20499;-89
2022/08/25 10:34:45;;;;;;;0.00;0.00;;;25.50;74.20;;;;;;5135134;27;20027;-90
2022/08/25 10:37:16;;;;;;;0.00;0.00;;;25.50;74.20;;;;;;5135134;27;20027;-89
2022/08/25 10:39:51;;;;;;;0.00;0.00;;;25.50;74.50;;;;;;5135086;27;20027;-89
2022/08/25 10:42:44;;;;;;;0.20;0.20;;;25.50;74.60;;;;;;5134846;27;20055;-89
2022/08/25 10:48:35;;;;;;;0.20;0.20;;;25.50;74.80;;;;;;5136173;27;20026;-89
2022/08/25 10:51:28;;;;;;;0.00;0.00;;;25.50;74.80;;;;;;5134963;27;20372;-89
2022/08/25 10:54:18;;;;;;;3.33;0.25;;;25.50;74.70;;;;;;5135974;27;20054;-89
2022/08/25 10:56:55;;;;;;;0.00;0.00;;;25.40;74.50;;;;;;5134773;27;20034;-89
2022/08/25 10:59:39;;;;;;;0.00;0.00;;;25.40;74.40;;;;;;5134996;27;20038;-89
2022/08/25 11:02:11;;;;;;;0.00;0.00;;;25.50;74.20;;;;;;5134884;27;20027;-89
2022/08/25 11:05:01;;;;;;;0.55;0.05;;;25.50;73.80;;;;;;5134983;27;20031;-89
2022/08/25 11:07:35;;;;;;;0.08;0.08;;;25.50;74.50;;;;;;5135018;27;20449;-89
2022/08/25 11:10:28;;;;;;;0.22;0.22;;;25.50;74.60;;;;;;5134384;27;20030;-90
2022/08/25 11:12:58;;;;;;;0.00;0.00;;;25.40;74.70;;;;;;5134717;27;20030;-90
2022/08/25 11:15:27;;;;;;;;;;;25.40;73.80;;;;;;5136189;27;20373;-89
2022/08/25 11:17:57;;;;;;;0.00;0.00;;;25.50;74.60;;;;;;5134647;27;19946;-90
2022/08/25 11:20:32;;;;;;;0.00;0.00;;;25.50;74.60;;;;;;5134724;27;20034;-89
2022/08/25 11:23:15;;;;;;;0.00;0.00;;;25.40;74.20;;;;;;5134669;27;20049;-89
2022/08/25 11:25:44;;;;;;;0.15;0.15;;;25.50;74.40;;;;;;5134790;27;20015;-89
2022/08/25 11:28:25;;;;;;;0.20;0.20;;;25.50;74.40;;;;;;5134569;27;20023;-89
2022/08/25 11:30:51;;;;;;;0.20;0.10;;;25.50;74.40;;;;;;5134177;27;20050;-84
2022/08/25 11:33:18;;;;;;;0.00;0.00;;;25.50;74.60;;;;;;5134937;27;20031;-79
2022/08/25 11:35:54;;;;;;;0.00;0.00;;;25.60;74.50;;;;;;5133515;27;20496;-78
2022/08/25 11:38:38;;;;;;;0.20;0.20;;;25.60;73.60;;;;;;5134683;27;20043;-78
2022/08/25 11:41:13;;;;;;;0.00;0.00;;;25.70;73.30;;;;;;5134679;27;20493;-79
2022/08/25 11:44:05;;;;;;;0.10;0.10;;;25.80;72.60;;;;;;5133205;27;20485;-79
2022/08/25 11:46:43;;;;;;;0.00;0.00;;;25.90;72.50;;;;;;5133383;27;20064;-79
2022/08/25 11:49:28;;;;;;;0.30;0.20;;;25.90;71.90;;;;;;5133359;27;20076;-79
2022/08/25 11:51:53;;;;;;;0.45;0.32;;;26.00;72.10;;;;;;5133285;28;20023;-78
2022/08/25 11:54:26;;;;;;;0.00;0.00;;;26.00;71.60;;;;;;5133205;28;20095;-79
2022/08/25 11:57:05;;;;;;;0.10;0.10;;;26.00;71.40;;;;;;5133346;28;20027;-79
2022/08/25 11:59:55;;;;;;;;;;;26.10;70.90;;;;;;5132577;27;20374;-79
2022/08/25 12:02:27;;;;;;;0.10;0.10;;;26.10;71.40;;;;;;5134591;27;19952;-80
2022/08/25 12:04:54;;;;;;;0.17;0.17;;;26.10;71.20;;;;;;5133228;28;20028;-79
2022/08/25 12:11:00;;;;;;;0.75;0.35;;;26.20;70.90;;;;;;5134653;28;20034;-80
2022/08/25 12:13:47;;;;;;;52.15;23.50;;;26.20;70.50;;;;;;5134695;28;20019;-81
2022/08/25 12:16:33;;;;;;;107.32;64.72;;;26.30;70.40;;;;;;5134426;27;20548;-81
2022/08/25 12:19:22;;;;;;;98.20;53.97;;;26.30;69.80;;;;;;5132346;28;20433;-80
2022/08/25 12:21:49;;;;;;;62.30;33.33;;;26.40;69.70;;;;;;5133212;27;20476;-87
2022/08/25 12:24:18;;;;;;;44.58;25.75;;;26.50;69.60;;;;;;5138314;27;20027;-78
2022/08/25 12:26:46;;;;;;;28.10;19.15;;;26.50;69.70;;;;;;5138754;27;20020;-78
2022/08/25 12:29:24;;;;;;;18.65;13.57;;;26.50;69.50;;;;;;5136660;27;20475;-79
2022/08/25 12:31:56;;;;;;;10.35;7.68;;;26.50;69.40;;;;;;5138338;27;20362;-79
2022/08/25 12:34:41;;;;;;;7.22;5.20;;;26.50;68.90;;;;;;5136313;27;20023;-81
2022/08/25 12:37:22;;;;;;;3.47;2.63;;;26.60;69.10;;;;;;5137032;27;20019;-81
2022/08/25 12:39:47;;;;;;;1.58;0.95;;;26.60;68.60;;;;;;5138124;27;20027;-81
2022/08/25 12:42:36;;;;;;;0.45;0.20;;;26.50;68.60;;;;;;5137701;27;20047;-82
2022/08/25 12:45:19;;;;;;;0.70;0.70;;;26.50;68.60;;;;;;5138028;27;20031;-82
2022/08/25 12:47:47;;;;;;;1.40;0.70;;;26.60;68.70;;;;;;5137929;27;20024;-83
2022/08/25 12:50:38;;;;;;;0.55;0.55;;;26.60;68.70;;;;;;5137986;27;20022;-82
2022/08/25 12:53:10;;;;;;;1.20;0.57;;;26.60;68.60;;;;;;5136503;27;20046;-80
2022/08/25 12:55:40;;;;;;;1.15;1.05;;;26.60;66.70;;;;;;5136490;27;20483;-83
2022/08/25 12:58:07;;;;;;;0.35;0.35;;;26.70;66.20;;;;;;5136493;27;20019;-80
2022/08/25 13:00:50;;;;;;;0.00;0.00;;;26.70;67.20;;;;;;5138013;27;20024;-79
2022/08/25 13:03:21;;;;;;;0.88;0.38;;;26.70;68.00;;;;;;5137663;27;20023;-80
2022/08/25 13:06:14;;;;;;;4.10;0.25;;;26.70;68.00;;;;;;5137105;27;20019;-80
2022/08/25 13:09:00;;;;;;;0.60;0.60;;;26.80;68.20;;;;;;5137587;27;20164;-79
2022/08/25 13:11:38;;;;;;;0.10;0.10;;;26.80;67.80;;;;;;5136222;27;20027;-79
2022/08/25 13:14:27;;;;;;;0.10;0.10;;;26.80;67.00;;;;;;5136152;27;20385;-81